Time,TemperatureF,DewpointF,PressureIn,WindDirection,WindDirectionDegrees,WindSpeedMPH,WindSpeedGustMPH,Humidity,HourlyPrecipIn,Conditions,Clouds,dailyrainin,SoftwareType,DateUTC
2013-08-01 00:01:00,72.1,68.3,29.40,SSW,212,0.0,5.0,88,0.00,,---,0.01,VWS V14.00,2013-08-01 04:01:00,
2013-08-01 00:02:00,72.1,68.3,29.40,SSW,212,0.0,5.0,88,0.00,,---,0.01,VWS V14.00,2013-08-01 04:02:00,
2013-08-01 00:03:00,72.1,68.3,29.40,SSW,212,0.0,5.0,88,0.00,,---,0.01,VWS V14.00,2013-08-01 04:03:00,
2013-08-01 00:05:00,72.1,68.3,29.40,South,179,0.0,5.0,88,0.00,,---,0.01,VWS V14.00,2013-08-01 04:05:00,
2013-08-01 00:10:00,72.2,68.4,29.40,South,183,0.0,5.0,88,0.00,,---,0.00,VWS V14.00,2013-08-01 04:10:00,
2013-08-01 00:15:00,72.2,68.4,29.40,South,183,0.0,5.0,88,0.00,,---,0.00,VWS V14.00,2013-08-01 04:15:00,
2013-08-01 00:20:00,72.2,68.4,29.40,South,189,3.0,5.0,88,0.00,,---,0.00,VWS V14.00,2013-08-01 04:20:00,
2013-08-01 00:25:00,72.2,68.4,29.40,South,188,0.0,5.0,88,0.00,,---,0.00,VWS V14.00,2013-08-01 04:25:00,
2013-08-01 00:31:00,72.1,68.3,29.40,South,188,0.0,5.0,88,0.00,,---,0.00,VWS V14.00,2013-08-01 04:31:00,
2013-08-01 00:36:00,72.0,68.3,29.40,South,188,3.0,5.0,88,0.00,,---,0.00,VWS V14.00,2013-08-01 04:36:00,
2013-08-01 00:41:00,72.0,68.3,29.40,South,188,0.0,1.0,88,0.00,,---,0.00,VWS V14.00,2013-08-01 04:41:00,
2013-08-01 00:46:00,72.0,68.3,29.40,South,188,2.0,3.0,88,0.00,,---,0.00,VWS V14.00,2013-08-01 04:46:00,
2013-08-01 00:51:00,71.9,68.2,29.40,SSW,198,0.0,5.0,88,0.00,,---,0.00,VWS V14.00,2013-08-01 04:51:00,
2013-08-01 00:56:00,71.8,68.1,29.40,SW,214,0.0,5.0,88,0.00,,---,0.00,VWS V14.00,2013-08-01 04:56:00,
2013-08-01 01:02:00,71.7,68.0,29.40,SW,228,1.0,6.0,88,0.00,,---,0.00,VWS V14.00,2013-08-01 05:02:00,
2013-08-01 01:07:00,71.7,68.0,29.40,WSW,238,2.0,3.0,88,0.00,,---,0.00,VWS V14.00,2013-08-01 05:07:00,
2013-08-01 01:12:00,71.6,68.2,29.40,WSW,238,0.0,3.0,89,0.00,,---,0.00,VWS V14.00,2013-08-01 05:12:00,
2013-08-01 01:17:00,71.6,68.2,29.40,WSW,238,0.0,3.0,89,0.00,,---,0.00,VWS V14.00,2013-08-01 05:17:00,
2013-08-01 01:22:00,71.5,68.1,29.40,WSW,238,0.0,3.0,89,0.00,,---,0.00,VWS V14.00,2013-08-01 05:22:00,
2013-08-01 01:27:00,71.5,68.1,29.40,WSW,238,1.0,4.0,89,0.00,,---,0.00,VWS V14.00,2013-08-01 05:27:00,
2013-08-01 01:33:00,71.4,68.0,29.40,WSW,238,1.0,4.0,89,0.00,,---,0.00,VWS V14.00,2013-08-01 05:33:00,
2013-08-01 01:38:00,71.3,67.9,29.40,WSW,238,2.0,2.0,89,0.00,,---,0.00,VWS V14.00,2013-08-01 05:38:00,
2013-08-01 01:43:00,71.3,67.9,29.40,WSW,238,0.0,2.0,89,0.00,,---,0.00,VWS V14.00,2013-08-01 05:43:00,
2013-08-01 01:48:00,71.0,67.6,29.40,WSW,238,0.0,2.0,89,0.00,,---,0.00,VWS V14.00,2013-08-01 05:48:00,
2013-08-01 01:53:00,70.9,67.8,29.40,WSW,238,0.0,2.0,90,0.00,,---,0.00,VWS V14.00,2013-08-01 05:53:00,
2013-08-01 01:58:00,70.8,67.7,29.40,WSW,238,0.0,2.0,90,0.00,,---,0.00,VWS V14.00,2013-08-01 05:58:00,
2013-08-01 02:03:00,70.7,67.6,29.40,WSW,238,0.0,2.0,90,0.00,,---,0.00,VWS V14.00,2013-08-01 06:03:00,
2013-08-01 02:09:00,70.6,67.5,29.40,WSW,238,0.0,0.0,90,0.00,,---,0.00,VWS V14.00,2013-08-01 06:09:00,
2013-08-01 02:14:00,70.3,67.2,29.40,WSW,238,0.0,1.0,90,0.00,,---,0.00,VWS V14.00,2013-08-01 06:14:00,
2013-08-01 02:19:00,70.0,66.9,29.40,WSW,238,0.0,3.0,90,0.00,,---,0.00,VWS V14.00,2013-08-01 06:19:00,
2013-08-01 02:24:00,69.8,66.7,29.40,WSW,238,0.0,3.0,90,0.00,,---,0.00,VWS V14.00,2013-08-01 06:24:00,
2013-08-01 02:29:00,69.7,66.6,29.40,WSW,238,2.0,3.0,90,0.00,,---,0.00,VWS V14.00,2013-08-01 06:29:00,
2013-08-01 02:34:00,69.5,66.4,29.40,WSW,238,0.0,3.0,90,0.00,,---,0.00,VWS V14.00,2013-08-01 06:34:00,
2013-08-01 02:40:00,69.4,66.7,29.40,WSW,238,2.0,2.0,91,0.00,,---,0.00,VWS V14.00,2013-08-01 06:40:00,
2013-08-01 02:45:00,69.6,66.9,29.40,WSW,238,0.0,3.0,91,0.00,,---,0.00,VWS V14.00,2013-08-01 06:45:00,
2013-08-01 02:50:00,69.8,67.1,29.40,WSW,238,2.0,3.0,91,0.00,,---,0.00,VWS V14.00,2013-08-01 06:50:00,
2013-08-01 02:55:00,69.9,67.2,29.40,WSW,238,0.0,3.0,91,0.00,,---,0.00,VWS V14.00,2013-08-01 06:55:00,
2013-08-01 03:00:00,69.9,67.2,29.40,WNW,282,3.0,6.0,91,0.00,,---,0.00,VWS V14.00,2013-08-01 07:00:00,
2013-08-01 03:05:00,69.9,67.2,29.40,WNW,282,3.0,6.0,91,0.00,,---,0.00,VWS V14.00,2013-08-01 07:05:00,
2013-08-01 03:10:00,69.9,67.2,29.40,West,281,0.0,3.0,91,0.00,,---,0.00,VWS V14.00,2013-08-01 07:10:00,
2013-08-01 03:16:00,69.8,67.1,29.40,WNW,282,0.0,4.0,91,0.00,,---,0.00,VWS V14.00,2013-08-01 07:16:00,
2013-08-01 03:21:00,69.7,67.0,31.83,WNW,283,0.0,4.0,91,0.00,,---,0.00,VWS V14.00,2013-08-01 07:21:00,
2013-08-01 03:26:00,69.5,66.8,31.83,West,281,3.0,5.0,91,0.00,,---,0.00,VWS V14.00,2013-08-01 07:26:00,
2013-08-01 03:31:00,69.4,66.3,31.83,WNW,283,4.0,5.0,90,0.00,,---,0.00,VWS V14.00,2013-08-01 07:31:00,
2013-08-01 03:36:00,69.3,66.6,31.83,WNW,283,3.0,5.0,91,0.00,,---,0.00,VWS V14.00,2013-08-01 07:36:00,
2013-08-01 03:41:00,69.2,66.2,31.83,WNW,283,0.0,6.0,90,0.00,,---,0.00,VWS V14.00,2013-08-01 07:41:00,
2013-08-01 03:47:00,69.1,66.1,31.83,WNW,283,1.0,6.0,90,0.00,,---,0.00,VWS V14.00,2013-08-01 07:47:00,
2013-08-01 03:52:00,69.0,65.9,31.83,WNW,283,1.0,6.0,90,0.00,,---,0.00,VWS V14.00,2013-08-01 07:52:00,
2013-08-01 03:57:00,68.9,65.8,31.83,WNW,283,3.0,6.0,90,0.00,,---,0.00,VWS V14.00,2013-08-01 07:57:00,
2013-08-01 04:02:00,68.8,65.8,31.83,WNW,283,0.0,6.0,90,0.00,,---,0.00,VWS V14.00,2013-08-01 08:02:00,
2013-08-01 04:07:00,68.7,65.7,31.83,WNW,283,0.0,2.0,90,0.00,,---,0.00,VWS V14.00,2013-08-01 08:07:00,
2013-08-01 04:13:00,68.6,65.6,31.83,WNW,283,0.0,4.0,90,0.00,,---,0.00,VWS V14.00,2013-08-01 08:13:00,
2013-08-01 04:18:00,68.6,65.6,31.83,WNW,283,0.0,4.0,90,0.00,,---,0.00,VWS V14.00,2013-08-01 08:18:00,
2013-08-01 04:23:00,68.4,65.4,31.83,WNW,283,0.0,4.0,90,0.00,,---,0.00,VWS V14.00,2013-08-01 08:23:00,
2013-08-01 04:28:00,68.3,65.3,31.83,WNW,283,0.0,4.0,90,0.00,,---,0.00,VWS V14.00,2013-08-01 08:28:00,
2013-08-01 04:33:00,68.2,65.2,31.83,WNW,283,0.0,5.0,90,0.00,,---,0.00,VWS V14.00,2013-08-01 08:33:00,
2013-08-01 04:38:00,68.1,65.1,31.83,WNW,283,0.0,1.0,90,0.00,,---,0.00,VWS V14.00,2013-08-01 08:38:00,
2013-08-01 04:43:00,68.0,65.0,31.83,WNW,283,0.0,3.0,90,0.00,,---,0.00,VWS V14.00,2013-08-01 08:43:00,
2013-08-01 04:48:00,67.9,64.9,31.83,WNW,283,0.0,4.0,90,0.00,,---,0.00,VWS V14.00,2013-08-01 08:48:00,
2013-08-01 04:55:00,67.7,64.7,31.83,WNW,283,0.0,4.0,90,0.00,,---,0.00,VWS V14.00,2013-08-01 08:55:00,
2013-08-01 05:02:00,67.7,64.7,31.83,WNW,290,6.0,6.0,90,0.00,,---,0.00,VWS V14.00,2013-08-01 09:02:00,
2013-08-01 05:07:00,67.6,64.6,31.83,WNW,290,1.0,4.0,90,0.00,,---,0.00,VWS V14.00,2013-08-01 09:07:00,
2013-08-01 05:13:00,67.6,64.6,31.83,WNW,292,2.0,6.0,90,0.00,,---,0.00,VWS V14.00,2013-08-01 09:13:00,
2013-08-01 05:18:00,67.6,64.6,31.83,WNW,290,2.0,6.0,90,0.00,,---,0.00,VWS V14.00,2013-08-01 09:18:00,
2013-08-01 05:23:00,67.5,64.5,31.83,WNW,290,3.0,6.0,90,0.00,,---,0.00,VWS V14.00,2013-08-01 09:23:00,
2013-08-01 05:28:00,67.4,64.4,31.83,WNW,290,0.0,6.0,90,0.00,,---,0.00,VWS V14.00,2013-08-01 09:28:00,
2013-08-01 05:34:00,67.4,64.4,31.83,WNW,290,0.0,6.0,90,0.00,,---,0.00,VWS V14.00,2013-08-01 09:34:00,
2013-08-01 05:39:00,67.3,64.3,31.83,WNW,290,0.0,2.0,90,0.00,,---,0.00,VWS V14.00,2013-08-01 09:39:00,
2013-08-01 05:45:00,67.2,64.2,31.83,WNW,290,0.0,3.0,90,0.00,,---,0.00,VWS V14.00,2013-08-01 09:45:00,
2013-08-01 05:50:00,67.1,64.1,31.83,WNW,290,2.0,3.0,90,0.00,,---,0.00,VWS V14.00,2013-08-01 09:50:00,
2013-08-01 05:56:00,67.0,64.0,31.83,WNW,290,0.0,3.0,90,0.00,,---,0.00,VWS V14.00,2013-08-01 09:56:00,
2013-08-01 06:01:00,66.9,63.9,31.83,WNW,290,0.0,3.0,90,0.00,,---,0.00,VWS V14.00,2013-08-01 10:01:00,
2013-08-01 06:07:00,66.8,63.8,31.83,WNW,290,2.0,3.0,90,0.00,,---,0.00,VWS V14.00,2013-08-01 10:07:00,
2013-08-01 07:31:00,66.7,63.7,31.83,West,270,0.0,6.0,90,0.00,,---,0.00,VWS V14.00,2013-08-01 11:31:00,
2013-08-01 07:37:00,66.8,63.8,31.83,West,269,0.0,6.0,90,0.00,,---,0.00,VWS V14.00,2013-08-01 11:37:00,
2013-08-01 07:42:00,66.8,63.8,31.83,West,270,0.0,0.0,90,0.00,,---,0.00,VWS V14.00,2013-08-01 11:42:00,
2013-08-01 07:47:00,66.9,64.2,31.83,West,269,0.0,0.0,91,0.00,,---,0.00,VWS V14.00,2013-08-01 11:47:00,
2013-08-01 07:52:00,66.9,64.2,31.83,West,270,0.0,0.0,91,0.00,,---,0.00,VWS V14.00,2013-08-01 11:52:00,
2013-08-01 07:58:00,67.0,64.3,31.83,West,269,0.0,0.0,91,0.00,,---,0.00,VWS V14.00,2013-08-01 11:58:00,
2013-08-01 08:03:00,67.1,64.4,31.83,West,270,0.0,2.0,91,0.00,,---,0.00,VWS V14.00,2013-08-01 12:03:00,
2013-08-01 08:08:00,67.1,64.4,31.83,West,269,0.0,0.0,91,0.00,,---,0.00,VWS V14.00,2013-08-01 12:08:00,
2013-08-01 08:13:00,67.2,64.5,31.83,West,270,0.0,4.0,91,0.00,,---,0.00,VWS V14.00,2013-08-01 12:13:00,
2013-08-01 08:20:00,67.2,64.2,31.83,South,190,0.0,4.0,90,0.00,,---,0.00,VWS V14.00,2013-08-01 12:20:00,
2013-08-01 08:27:00,67.3,64.3,31.83,SSW,193,1.0,4.0,90,0.00,,---,0.00,VWS V14.00,2013-08-01 12:27:00,
2013-08-01 08:32:00,67.4,64.4,31.83,SSW,193,0.0,4.0,90,0.00,,---,0.00,VWS V14.00,2013-08-01 12:32:00,
2013-08-01 08:37:00,67.6,64.6,31.83,North,10,0.0,0.0,90,0.00,,---,0.00,VWS V14.00,2013-08-01 12:37:00,
2013-08-01 08:43:00,67.9,64.9,31.83,North,10,0.0,1.0,90,0.00,,---,0.00,VWS V14.00,2013-08-01 12:43:00,
2013-08-01 08:48:00,68.0,65.0,31.83,North,10,0.0,1.0,90,0.00,,---,0.00,VWS V14.00,2013-08-01 12:48:00,
2013-08-01 08:53:00,68.1,64.7,31.83,NW,323,3.0,3.0,89,0.00,,---,0.00,VWS V14.00,2013-08-01 12:53:00,
2013-08-01 08:58:00,68.1,64.7,31.83,NW,313,0.0,3.0,89,0.00,,---,0.00,VWS V14.00,2013-08-01 12:58:00,
2013-08-01 09:03:00,68.1,64.7,31.83,NW,313,0.0,3.0,89,0.00,,---,0.00,VWS V14.00,2013-08-01 13:03:00,
2013-08-01 09:09:00,68.3,64.9,31.83,NW,313,0.0,1.0,89,0.00,,---,0.00,VWS V14.00,2013-08-01 13:09:00,
2013-08-01 09:15:00,68.3,64.9,31.83,NW,313,0.0,2.0,89,0.00,,---,0.00,VWS V14.00,2013-08-01 13:15:00,
2013-08-01 09:20:00,68.6,65.2,31.83,NW,313,0.0,2.0,89,0.00,,---,0.00,VWS V14.00,2013-08-01 13:20:00,
2013-08-01 09:25:00,68.8,65.4,31.83,NW,313,1.0,2.0,89,0.00,,---,0.00,VWS V14.00,2013-08-01 13:25:00,
2013-08-01 09:31:00,68.9,65.2,31.83,SSW,205,0.0,4.0,88,0.00,,---,0.00,VWS V14.00,2013-08-01 13:31:00,
2013-08-01 09:37:00,69.3,65.6,31.83,SSW,207,2.0,4.0,88,0.00,,---,0.00,VWS V14.00,2013-08-01 13:37:00,
2013-08-01 09:43:00,69.6,65.6,31.83,WNW,284,5.0,6.0,87,0.00,,---,0.00,VWS V14.00,2013-08-01 13:43:00,
2013-08-01 09:48:00,70.0,65.6,31.83,WNW,302,0.0,6.0,86,0.00,,---,0.00,VWS V14.00,2013-08-01 13:48:00,
2013-08-01 09:55:00,70.2,65.5,31.83,WNW,299,3.0,6.0,85,0.00,,---,0.00,VWS V14.00,2013-08-01 13:55:00,
2013-08-01 10:02:00,70.9,66.2,31.83,WNW,300,0.0,6.0,85,0.00,,---,0.00,VWS V14.00,2013-08-01 14:02:00,
2013-08-01 10:08:00,71.7,66.6,31.83,North,360,0.0,0.0,84,0.00,,---,0.00,VWS V14.00,2013-08-01 14:08:00,
2013-08-01 10:13:00,72.1,66.3,31.83,West,269,0.0,5.0,82,0.00,,---,0.00,VWS V14.00,2013-08-01 14:13:00,
2013-08-01 10:20:00,72.2,65.7,31.83,NNW,338,4.0,6.0,80,0.00,,---,0.00,VWS V14.00,2013-08-01 14:20:00,
2013-08-01 10:25:00,72.5,66.0,31.83,NNE,23,4.0,6.0,80,0.00,,---,0.00,VWS V14.00,2013-08-01 14:25:00,
2013-08-01 10:30:00,72.5,66.0,31.83,NNE,31,3.0,7.0,80,0.00,,---,0.00,VWS V14.00,2013-08-01 14:30:00,
2013-08-01 10:37:00,72.6,66.1,31.83,NNE,13,0.0,2.0,80,0.00,,---,0.00,VWS V14.00,2013-08-01 14:37:00,
2013-08-01 10:42:00,72.9,66.0,31.83,NNE,31,7.0,7.0,79,0.00,,---,0.00,VWS V14.00,2013-08-01 14:42:00,
2013-08-01 10:47:00,72.8,65.6,31.83,NNE,26,4.0,8.0,78,0.00,,---,0.00,VWS V14.00,2013-08-01 14:47:00,
2013-08-01 10:53:00,73.1,65.5,31.83,North,10,7.0,10.0,77,0.00,,---,0.00,VWS V14.00,2013-08-01 14:53:00,
2013-08-01 10:58:00,73.4,65.0,31.83,NNE,12,3.0,10.0,75,0.00,,---,0.00,VWS V14.00,2013-08-01 14:58:00,
2013-08-01 11:04:00,74.0,64.8,31.83,NNE,15,8.0,10.0,73,0.00,,---,0.00,VWS V14.00,2013-08-01 15:04:00,
2013-08-01 11:09:00,74.4,63.6,31.83,NW,315,9.0,10.0,69,0.00,,---,0.00,VWS V14.00,2013-08-01 15:09:00,
2013-08-01 11:17:00,74.8,64.4,31.83,NNW,346,10.0,11.0,70,0.00,,---,0.00,VWS V14.00,2013-08-01 15:17:00,
2013-08-01 11:23:00,75.0,63.7,31.83,NNE,12,7.0,14.0,68,0.00,,---,0.00,VWS V14.00,2013-08-01 15:23:00,
2013-08-01 11:28:00,75.1,64.2,31.83,NNE,30,4.0,14.0,69,0.00,,---,0.00,VWS V14.00,2013-08-01 15:28:00,
2013-08-01 11:33:00,75.3,64.4,31.83,WNW,300,3.0,14.0,69,0.00,,---,0.00,VWS V14.00,2013-08-01 15:33:00,
2013-08-01 11:38:00,75.7,63.5,31.83,North,360,4.0,11.0,66,0.00,,---,0.00,VWS V14.00,2013-08-01 15:38:00,
2013-08-01 11:43:00,75.8,63.6,31.83,NW,316,3.0,13.0,66,0.00,,---,0.00,VWS V14.00,2013-08-01 15:43:00,
2013-08-01 11:49:00,76.1,63.0,31.83,North,360,7.0,13.0,64,0.00,,---,0.00,VWS V14.00,2013-08-01 15:49:00,
2013-08-01 11:55:00,76.2,64.0,31.83,NNW,333,10.0,13.0,66,0.00,,---,0.00,VWS V14.00,2013-08-01 15:55:00,
2013-08-01 12:01:00,76.3,63.2,31.83,NNW,336,5.0,13.0,64,0.00,,---,0.00,VWS V14.00,2013-08-01 16:01:00,
2013-08-01 12:07:00,76.5,63.4,31.83,NNW,339,8.0,13.0,64,0.00,,---,0.00,VWS V14.00,2013-08-01 16:07:00,
2013-08-01 12:13:00,76.6,64.4,31.83,North,11,4.0,13.0,66,0.00,,---,0.00,VWS V14.00,2013-08-01 16:13:00,
2013-08-01 12:19:00,76.9,63.8,31.83,West,279,3.0,13.0,64,0.00,,---,0.00,VWS V14.00,2013-08-01 16:19:00,
2013-08-01 12:25:00,77.3,63.7,31.83,North,355,10.0,13.0,63,0.00,,---,0.00,VWS V14.00,2013-08-01 16:25:00,
2013-08-01 12:30:00,77.2,64.1,31.83,NNW,341,10.0,13.0,64,0.00,,---,0.00,VWS V14.00,2013-08-01 16:30:00,
2013-08-01 12:36:00,77.3,64.2,31.83,NNW,341,5.0,15.0,64,0.00,,---,0.00,VWS V14.00,2013-08-01 16:36:00,
2013-08-01 12:42:00,77.4,63.8,31.83,North,355,3.0,11.0,63,0.00,,---,0.00,VWS V14.00,2013-08-01 16:42:00,
2013-08-01 12:47:00,77.5,63.9,31.83,North,360,5.0,13.0,63,0.00,,---,0.00,VWS V14.00,2013-08-01 16:47:00,
2013-08-01 12:53:00,77.8,62.3,31.83,North,360,11.0,17.0,59,0.00,,---,0.00,VWS V14.00,2013-08-01 16:53:00,
2013-08-01 12:59:00,78.3,63.8,31.83,NNW,336,5.0,17.0,61,0.00,,---,0.00,VWS V14.00,2013-08-01 16:59:00,
2013-08-01 13:05:00,78.7,62.7,31.83,WSW,238,7.0,17.0,58,0.00,,---,0.00,VWS V14.00,2013-08-01 17:05:00,
2013-08-01 13:10:00,78.9,63.4,30.39,North,355,0.0,11.0,59,0.00,,---,0.00,VWS V14.00,2013-08-01 17:10:00,
2013-08-01 13:15:00,79.4,63.8,30.39,NNW,327,5.0,11.0,59,0.00,,---,0.00,VWS V14.00,2013-08-01 17:15:00,
2013-08-01 13:20:00,79.3,62.3,30.39,WNW,299,4.0,12.0,56,0.00,,---,0.00,VWS V14.00,2013-08-01 17:20:00,
2013-08-01 13:27:00,79.3,63.7,30.39,North,355,0.0,12.0,59,0.00,,---,0.00,VWS V14.00,2013-08-01 17:27:00,
2013-08-01 13:32:00,79.2,62.7,30.39,NNW,348,2.0,16.0,57,0.00,,---,0.00,VWS V14.00,2013-08-01 17:32:00,
2013-08-01 13:38:00,79.4,63.3,30.39,North,5,5.0,5.0,58,0.00,,---,0.00,VWS V14.00,2013-08-01 17:38:00,
2013-08-01 13:44:00,79.6,63.0,30.39,North,355,7.0,11.0,57,0.00,,---,0.00,VWS V14.00,2013-08-01 17:44:00,
2013-08-01 13:50:00,79.4,63.3,30.39,NW,317,8.0,11.0,58,0.00,,---,0.00,VWS V14.00,2013-08-01 17:50:00,
2013-08-01 13:55:00,79.0,62.0,30.39,NW,305,3.0,13.0,56,0.00,,---,0.00,VWS V14.00,2013-08-01 17:55:00,
2013-08-01 14:02:00,79.3,62.8,30.39,NW,318,0.0,13.0,57,0.00,,---,0.00,VWS V14.00,2013-08-01 18:02:00,
2013-08-01 14:07:00,79.1,61.0,30.39,WNW,299,6.0,7.0,54,0.00,,---,0.00,VWS V14.00,2013-08-01 18:07:00,
2013-08-01 14:12:00,79.2,62.7,30.39,NW,318,3.0,14.0,57,0.00,,---,0.00,VWS V14.00,2013-08-01 18:12:00,
2013-08-01 14:17:00,79.3,63.3,30.39,NW,306,8.0,14.0,58,0.00,,---,0.00,VWS V14.00,2013-08-01 18:17:00,
2013-08-01 14:23:00,79.6,63.5,30.39,WSW,250,4.0,14.0,58,0.00,,---,0.00,VWS V14.00,2013-08-01 18:23:00,
2013-08-01 14:28:00,79.8,64.2,30.39,SSW,211,0.0,14.0,59,0.00,,---,0.00,VWS V14.00,2013-08-01 18:28:00,
2013-08-01 14:33:00,79.8,63.2,30.39,WNW,295,6.0,14.0,57,0.00,,---,0.00,VWS V14.00,2013-08-01 18:33:00,
2013-08-01 14:39:00,80.0,62.9,31.38,South,179,3.0,5.0,56,0.00,,---,0.00,VWS V14.00,2013-08-01 18:39:00,
2013-08-01 14:44:00,80.3,64.2,31.38,SSW,198,9.0,9.0,58,0.00,,---,0.00,VWS V14.00,2013-08-01 18:44:00,
2013-08-01 14:49:00,80.3,63.7,31.38,WSW,247,0.0,9.0,57,0.00,,---,0.00,VWS V14.00,2013-08-01 18:49:00,
2013-08-01 14:56:00,80.7,63.6,31.38,WSW,237,4.0,9.0,56,0.00,,---,0.00,VWS V14.00,2013-08-01 18:56:00,
2013-08-01 15:02:00,80.7,62.5,31.38,WNW,299,4.0,9.0,54,0.00,,---,0.00,VWS V14.00,2013-08-01 19:02:00,
2013-08-01 15:07:00,80.3,62.7,31.38,WNW,294,2.0,10.0,55,0.00,,---,0.00,VWS V14.00,2013-08-01 19:07:00,
2013-08-01 15:12:00,80.4,62.8,31.38,WNW,295,2.0,4.0,55,0.00,,---,0.00,VWS V14.00,2013-08-01 19:12:00,
2013-08-01 15:17:00,80.6,62.4,31.38,NW,314,1.0,6.0,54,0.00,,---,0.00,VWS V14.00,2013-08-01 19:17:00,
2013-08-01 15:23:00,81.0,61.7,31.38,NNW,329,6.0,10.0,52,0.00,,---,0.00,VWS V14.00,2013-08-01 19:23:00,
2013-08-01 15:28:00,81.1,61.8,31.38,WNW,283,5.0,10.0,52,0.00,,---,0.00,VWS V14.00,2013-08-01 19:28:00,
2013-08-01 15:33:00,81.3,62.0,31.38,WSW,257,12.0,13.0,52,0.00,,---,0.00,VWS V14.00,2013-08-01 19:33:00,
2013-08-01 15:39:00,81.4,62.6,30.26,SW,227,4.0,7.0,53,0.00,,---,0.00,VWS V14.00,2013-08-01 19:39:00,
2013-08-01 15:44:00,81.2,63.5,30.30,SSE,156,3.0,11.0,55,0.00,,---,0.00,VWS V14.00,2013-08-01 19:44:00,
2013-08-01 15:51:00,81.3,63.6,30.30,West,263,0.0,11.0,55,0.00,,---,0.00,VWS V14.00,2013-08-01 19:51:00,
2013-08-01 15:57:00,81.2,62.5,30.30,South,179,4.0,11.0,53,0.00,,---,0.00,VWS V14.00,2013-08-01 19:57:00,
2013-08-01 16:03:00,81.2,63.5,30.30,WSW,238,3.0,11.0,55,0.00,,---,0.00,VWS V14.00,2013-08-01 20:03:00,
2013-08-01 16:08:00,81.6,62.3,30.30,WSW,251,7.0,7.0,52,0.00,,---,0.00,VWS V14.00,2013-08-01 20:08:00,
2013-08-01 16:13:00,81.8,62.5,30.30,SSW,207,0.0,7.0,52,0.00,,---,0.00,VWS V14.00,2013-08-01 20:13:00,
2013-08-01 16:18:00,81.9,63.1,30.30,WNW,298,5.0,11.0,53,0.00,,---,0.00,VWS V14.00,2013-08-01 20:18:00,
2013-08-01 16:24:00,81.8,62.5,30.30,SSW,211,0.0,11.0,52,0.00,,---,0.00,VWS V14.00,2013-08-01 20:24:00,
2013-08-01 16:29:00,81.6,63.9,30.30,WSW,256,3.0,11.0,55,0.00,,---,0.00,VWS V14.00,2013-08-01 20:29:00,
2013-08-01 16:35:00,81.7,62.9,30.30,WNW,288,0.0,12.0,53,0.00,,---,0.00,VWS V14.00,2013-08-01 20:35:00,
2013-08-01 16:40:00,81.5,62.7,30.30,NW,304,3.0,7.0,53,0.00,,---,0.00,VWS V14.00,2013-08-01 20:40:00,
2013-08-01 16:42:00,81.4,63.2,30.30,WNW,302,0.0,7.0,54,0.00,,---,0.00,VWS V14.00,2013-08-01 20:42:00,
2013-08-01 16:47:00,81.5,63.3,30.30,NW,304,4.0,7.0,54,0.00,,---,0.00,VWS V14.00,2013-08-01 20:47:00,
2013-08-01 16:52:00,81.4,63.2,30.30,SW,227,0.0,9.0,54,0.00,,---,0.00,VWS V14.00,2013-08-01 20:52:00,
2013-08-01 16:57:00,80.9,63.2,30.30,WNW,282,1.0,10.0,55,0.00,,---,0.00,VWS V14.00,2013-08-01 20:57:00,
2013-08-01 17:02:00,80.5,62.9,30.30,West,269,3.0,10.0,55,0.00,,---,0.00,VWS V14.00,2013-08-01 21:02:00,
2013-08-01 17:07:00,80.8,63.1,30.30,WNW,290,4.0,4.0,55,0.00,,---,0.00,VWS V14.00,2013-08-01 21:07:00,
2013-08-01 17:13:00,81.1,61.8,30.30,West,265,9.0,11.0,52,0.00,,---,0.00,VWS V14.00,2013-08-01 21:13:00,
2013-08-01 17:20:00,81.4,62.6,30.30,NW,306,3.0,11.0,53,0.00,,---,0.00,VWS V14.00,2013-08-01 21:20:00,
2013-08-01 17:25:00,81.6,62.3,30.30,WNW,300,1.0,13.0,52,0.00,,---,0.00,VWS V14.00,2013-08-01 21:25:00,
2013-08-01 17:30:00,81.6,61.2,30.30,NW,307,2.0,13.0,50,0.00,,---,0.00,VWS V14.00,2013-08-01 21:30:00,
2013-08-01 17:35:00,81.7,62.4,30.30,WNW,288,0.0,13.0,52,0.00,,---,0.00,VWS V14.00,2013-08-01 21:35:00,
2013-08-01 17:40:00,82.0,62.7,30.30,NW,304,7.0,9.0,52,0.00,,---,0.00,VWS V14.00,2013-08-01 21:40:00,
2013-08-01 17:46:00,82.0,62.1,30.30,NW,309,2.0,13.0,51,0.00,,---,0.00,VWS V14.00,2013-08-01 21:46:00,
2013-08-01 17:51:00,82.2,61.2,30.30,WNW,283,12.0,13.0,49,0.00,,---,0.00,VWS V14.00,2013-08-01 21:51:00,
2013-08-01 17:56:00,82.1,61.1,30.30,WNW,298,7.0,13.0,49,0.00,,---,0.00,VWS V14.00,2013-08-01 21:56:00,
2013-08-01 18:01:00,81.7,60.7,30.30,WNW,288,4.0,13.0,49,0.00,,---,0.00,VWS V14.00,2013-08-01 22:01:00,
2013-08-01 18:07:00,81.2,60.8,31.84,WNW,292,0.0,13.0,50,0.00,,---,0.00,VWS V14.00,2013-08-01 22:07:00,
2013-08-01 18:12:00,81.0,61.2,31.84,West,279,4.0,10.0,51,0.00,,---,0.00,VWS V14.00,2013-08-01 22:12:00,
2013-08-01 18:17:00,80.8,61.0,31.84,SW,227,3.0,13.0,51,0.00,,---,0.00,VWS V14.00,2013-08-01 22:17:00,
2013-08-01 18:23:00,80.5,60.7,31.84,West,261,11.0,13.0,51,0.00,,---,0.00,VWS V14.00,2013-08-01 22:23:00,
2013-08-01 18:28:00,80.5,61.8,31.84,NNW,330,1.0,13.0,53,0.00,,---,0.00,VWS V14.00,2013-08-01 22:28:00,
2013-08-01 18:33:00,80.7,61.5,31.84,West,275,3.0,13.0,52,0.00,,---,0.00,VWS V14.00,2013-08-01 22:33:00,
2013-08-01 18:39:00,80.9,61.6,31.84,WNW,299,3.0,6.0,52,0.00,,---,0.00,VWS V14.00,2013-08-01 22:39:00,
2013-08-01 18:44:00,80.8,61.5,31.84,NNW,329,0.0,7.0,52,0.00,,---,0.00,VWS V14.00,2013-08-01 22:44:00,
2013-08-01 18:50:00,80.6,61.9,31.84,NW,314,2.0,7.0,53,0.00,,---,0.00,VWS V14.00,2013-08-01 22:50:00,
2013-08-01 18:55:00,80.6,61.9,31.84,NNW,344,2.0,7.0,53,0.00,,---,0.00,VWS V14.00,2013-08-01 22:55:00,
2013-08-01 19:00:00,80.3,61.6,31.84,WNW,291,3.0,9.0,53,0.00,,---,0.00,VWS V14.00,2013-08-01 23:00:00,
2013-08-01 19:07:00,80.0,60.8,31.84,NNW,344,5.0,12.0,52,0.00,,---,0.00,VWS V14.00,2013-08-01 23:07:00,
2013-08-01 19:12:00,79.8,60.6,31.84,NW,314,3.0,6.0,52,0.00,,---,0.00,VWS V14.00,2013-08-01 23:12:00,
2013-08-01 19:17:00,79.8,61.2,29.91,NW,324,2.0,6.0,53,0.00,,---,0.00,VWS V14.00,2013-08-01 23:17:00,
2013-08-01 19:22:00,79.7,62.1,29.91,NW,325,0.0,6.0,55,0.00,,---,0.00,VWS V14.00,2013-08-01 23:22:00,
2013-08-01 19:27:00,79.5,63.0,29.91,NW,325,0.0,6.0,57,0.00,,---,0.00,VWS V14.00,2013-08-01 23:27:00,
2013-08-01 19:32:00,79.4,64.8,29.91,NW,325,2.0,6.0,61,0.00,,---,0.00,VWS V14.00,2013-08-01 23:32:00,
2013-08-01 19:37:00,78.9,63.4,29.91,NW,325,0.0,0.0,59,0.00,,---,0.00,VWS V14.00,2013-08-01 23:37:00,
2013-08-01 19:44:00,78.5,63.5,29.91,NW,325,0.0,2.0,60,0.00,,---,0.00,VWS V14.00,2013-08-01 23:44:00,
2013-08-01 19:49:00,77.7,63.7,29.91,NW,325,0.0,2.0,62,0.00,,---,0.00,VWS V14.00,2013-08-01 23:49:00,
2013-08-01 19:54:00,76.9,63.8,29.91,NW,325,1.0,2.0,64,0.00,,---,0.00,VWS V14.00,2013-08-01 23:54:00,
2013-08-01 19:59:00,76.0,63.0,29.91,NW,325,1.0,3.0,64,0.00,,---,0.00,VWS V14.00,2013-08-01 23:59:00,
2013-08-01 20:05:00,75.3,62.7,29.91,NW,325,0.0,3.0,65,0.00,,---,0.00,VWS V14.00,2013-08-02 00:05:00,
2013-08-01 20:10:00,74.6,63.3,29.91,NW,325,0.0,1.0,68,0.00,,---,0.00,VWS V14.00,2013-08-02 00:10:00,
2013-08-01 20:15:00,73.7,62.9,29.91,NW,325,3.0,3.0,69,0.00,,---,0.00,VWS V14.00,2013-08-02 00:15:00,
2013-08-01 20:20:00,73.1,62.3,29.91,NW,310,0.0,3.0,69,0.00,,---,0.00,VWS V14.00,2013-08-02 00:20:00,
2013-08-01 20:25:00,72.9,62.5,29.91,NW,310,0.0,4.0,70,0.00,,---,0.00,VWS V14.00,2013-08-02 00:25:00,
2013-08-01 20:31:00,72.7,62.8,29.91,NW,310,0.0,4.0,71,0.00,,---,0.00,VWS V14.00,2013-08-02 00:31:00,
2013-08-01 20:37:00,72.5,62.6,29.91,NW,310,0.0,4.0,71,0.00,,---,0.00,VWS V14.00,2013-08-02 00:37:00,
2013-08-01 20:43:00,72.1,62.6,29.91,NW,310,0.0,0.0,72,0.00,,---,0.00,VWS V14.00,2013-08-02 00:43:00,
2013-08-01 20:48:00,71.8,62.3,29.91,NW,310,0.0,0.0,72,0.00,,---,0.00,VWS V14.00,2013-08-02 00:48:00,
2013-08-01 20:54:00,71.5,62.0,29.91,NW,310,0.0,0.0,72,0.00,,---,0.00,VWS V14.00,2013-08-02 00:54:00,
2013-08-01 20:59:00,71.3,62.2,29.91,NW,310,0.0,0.0,73,0.00,,---,0.00,VWS V14.00,2013-08-02 00:59:00,
2013-08-01 21:04:00,70.8,62.1,29.91,NW,310,0.0,0.0,74,0.00,,---,0.00,VWS V14.00,2013-08-02 01:04:00,
2013-08-01 21:10:00,70.5,62.2,29.91,NW,310,0.0,0.0,75,0.00,,---,0.00,VWS V14.00,2013-08-02 01:10:00,
2013-08-01 21:15:00,70.1,61.8,29.91,NW,310,0.0,0.0,75,0.00,,---,0.00,VWS V14.00,2013-08-02 01:15:00,
2013-08-01 21:20:00,70.0,61.3,29.91,NW,310,0.0,0.0,74,0.00,,---,0.00,VWS V14.00,2013-08-02 01:20:00,
2013-08-01 21:25:00,70.1,61.4,29.91,NW,310,0.0,0.0,74,0.00,,---,0.00,VWS V14.00,2013-08-02 01:25:00,
2013-08-01 21:30:00,70.1,61.4,29.91,NW,310,0.0,0.0,74,0.00,,---,0.00,VWS V14.00,2013-08-02 01:30:00,
2013-08-01 21:35:00,70.3,61.2,29.91,NW,310,0.0,0.0,73,0.00,,---,0.00,VWS V14.00,2013-08-02 01:35:00,
2013-08-01 21:40:00,70.2,61.5,29.91,NW,310,0.0,0.0,74,0.00,,---,0.00,VWS V14.00,2013-08-02 01:40:00,
2013-08-01 21:46:00,69.8,61.5,29.91,NW,310,0.0,0.0,75,0.00,,---,0.00,VWS V14.00,2013-08-02 01:46:00,
2013-08-01 21:51:00,69.7,61.4,29.91,NW,310,0.0,0.0,75,0.00,,---,0.00,VWS V14.00,2013-08-02 01:51:00,
2013-08-01 21:57:00,69.6,61.7,29.91,NW,310,0.0,0.0,76,0.00,,---,0.00,VWS V14.00,2013-08-02 01:57:00,
2013-08-01 22:02:00,69.4,61.9,29.91,NW,310,0.0,0.0,77,0.00,,---,0.00,VWS V14.00,2013-08-02 02:02:00,
2013-08-01 22:07:00,69.2,61.7,29.91,NW,310,0.0,0.0,77,0.00,,---,0.00,VWS V14.00,2013-08-02 02:07:00,
2013-08-01 22:12:00,68.9,61.8,29.91,NW,310,0.0,0.0,78,0.00,,---,0.00,VWS V14.00,2013-08-02 02:12:00,
2013-08-01 22:18:00,68.6,61.8,29.91,NW,310,0.0,0.0,79,0.00,,---,0.00,VWS V14.00,2013-08-02 02:18:00,
2013-08-01 22:23:00,68.4,61.6,29.91,NW,310,0.0,0.0,79,0.00,,---,0.00,VWS V14.00,2013-08-02 02:23:00,
2013-08-01 22:28:00,68.2,61.5,29.91,NW,310,0.0,0.0,79,0.00,,---,0.00,VWS V14.00,2013-08-02 02:28:00,
2013-08-01 22:33:00,68.0,61.6,29.91,NW,310,0.0,0.0,80,0.00,,---,0.00,VWS V14.00,2013-08-02 02:33:00,
2013-08-01 22:38:00,67.8,61.4,29.91,NW,310,0.0,0.0,80,0.00,,---,0.00,VWS V14.00,2013-08-02 02:38:00,
2013-08-01 22:44:00,67.6,61.2,29.91,NW,310,0.0,0.0,80,0.00,,---,0.00,VWS V14.00,2013-08-02 02:44:00,
2013-08-01 22:51:00,67.6,61.2,29.91,NW,310,0.0,0.0,80,0.00,,---,0.00,VWS V14.00,2013-08-02 02:51:00,
2013-08-01 22:56:00,67.4,61.0,29.91,NW,310,0.0,0.0,80,0.00,,---,0.00,VWS V14.00,2013-08-02 02:56:00,
2013-08-01 23:02:00,67.2,61.2,29.91,NW,310,0.0,0.0,81,0.00,,---,0.00,VWS V14.00,2013-08-02 03:02:00,
2013-08-01 23:07:00,67.1,61.1,29.91,NW,310,0.0,0.0,81,0.00,,---,0.00,VWS V14.00,2013-08-02 03:07:00,
2013-08-01 23:12:00,67.1,61.4,29.91,NW,310,0.0,0.0,82,0.00,,---,0.00,VWS V14.00,2013-08-02 03:12:00,
2013-08-01 23:17:00,67.4,62.1,29.91,NW,310,0.0,0.0,83,0.00,,---,0.00,VWS V14.00,2013-08-02 03:17:00,
2013-08-01 23:22:00,67.5,62.2,29.91,NW,310,0.0,0.0,83,0.00,,---,0.00,VWS V14.00,2013-08-02 03:22:00,
2013-08-01 23:27:00,67.4,62.1,29.91,NW,310,0.0,0.0,83,0.00,,---,0.00,VWS V14.00,2013-08-02 03:27:00,
2013-08-01 23:33:00,67.6,62.6,29.91,NW,310,0.0,0.0,84,0.00,,---,0.00,VWS V14.00,2013-08-02 03:33:00,
2013-08-01 23:38:00,68.1,62.8,29.91,NW,310,0.0,0.0,83,0.00,,---,0.00,VWS V14.00,2013-08-02 03:38:00,
2013-08-01 23:43:00,68.3,62.6,29.91,NW,310,0.0,0.0,82,0.00,,---,0.00,VWS V14.00,2013-08-02 03:43:00,
2013-08-01 23:48:00,68.2,62.5,29.91,NW,310,0.0,0.0,82,0.00,,---,0.00,VWS V14.00,2013-08-02 03:48:00,
2013-08-01 23:53:00,67.9,62.2,29.91,NW,310,0.0,0.0,82,0.00,,---,0.00,VWS V14.00,2013-08-02 03:53:00,
2013-08-01 23:59:00,67.5,62.2,29.91,NW,310,0.0,0.0,83,0.00,,---,0.00,VWS V14.00,2013-08-02 03:59:00,